createdAt,value
2022-09-07T00:01:07.534Z,18.94
2022-09-07T00:03:35.761Z,18.83
2022-09-07T00:06:08.872Z,18.87
2022-09-07T00:08:37.641Z,18.88
2022-09-07T00:11:15.267Z,18.81
2022-09-07T00:13:45.801Z,18.77
2022-09-07T00:16:25.103Z,18.65
2022-09-07T00:19:00.263Z,18.68
2022-09-07T00:21:28.706Z,18.74
2022-09-07T00:23:56.808Z,18.66
2022-09-07T00:26:28.210Z,18.56
2022-09-07T00:29:01.904Z,18.60
2022-09-07T00:31:31.315Z,18.56
2022-09-07T00:34:01.822Z,18.53
2022-09-07T00:36:32.347Z,18.46
2022-09-07T00:38:59.945Z,18.34
2022-09-07T00:41:28.682Z,18.93
2022-09-07T00:44:19.694Z,18.97
2022-09-07T00:46:48.004Z,18.34
2022-09-07T00:49:22.566Z,18.00
2022-09-07T00:51:58.337Z,17.83
2022-09-07T00:54:37.444Z,17.69
2022-09-07T00:57:07.063Z,17.85
2022-09-07T00:59:45.654Z,17.89
2022-09-07T01:02:17.330Z,17.75
2022-09-07T01:04:50.177Z,17.73
2022-09-07T01:07:18.452Z,17.66
2022-09-07T01:09:47.723Z,17.57
2022-09-07T01:12:15.333Z,17.68
2022-09-07T01:14:51.176Z,17.64
2022-09-07T01:17:53.146Z,17.54
2022-09-07T01:20:54.679Z,17.33
2022-09-07T01:23:49.905Z,17.27
2022-09-07T01:26:35.445Z,17.12
2022-09-07T01:29:35.404Z,17.17
2022-09-07T01:32:36.294Z,17.19
2022-09-07T01:35:39.975Z,17.17
2022-09-07T01:38:27.881Z,17.24
2022-09-07T01:41:05.782Z,17.29
2022-09-07T01:44:01.524Z,17.34
2022-09-07T01:46:36.587Z,17.37
2022-09-07T01:49:44.331Z,17.39
2022-09-07T01:52:34.892Z,17.20
2022-09-07T01:55:34.049Z,17.30
2022-09-07T01:58:22.187Z,17.54
2022-09-07T02:01:00.259Z,17.50
2022-09-07T02:03:38.041Z,17.49
2022-09-07T02:06:15.275Z,17.30
2022-09-07T02:09:06.891Z,17.38
2022-09-07T02:11:44.619Z,17.28
2022-09-07T02:14:36.878Z,17.41
2022-09-07T02:17:31.921Z,17.30
2022-09-07T02:20:09.359Z,17.27
2022-09-07T02:22:44.668Z,17.03
2022-09-07T02:25:22.305Z,17.07
2022-09-07T02:27:59.387Z,17.11
2022-09-07T02:30:30.105Z,17.02
2022-09-07T02:32:57.797Z,17.22
2022-09-07T02:35:25.691Z,17.15
2022-09-07T02:37:54.008Z,17.09
2022-09-07T02:40:21.522Z,17.21
2022-09-07T02:42:50.734Z,17.11
2022-09-07T02:45:19.389Z,17.20
2022-09-07T02:47:58.773Z,17.18
2022-09-07T02:50:53.518Z,17.06
2022-09-07T02:53:48.152Z,16.90
2022-09-07T02:56:59.985Z,17.21
2022-09-07T03:00:01.819Z,17.29
2022-09-07T03:02:54.783Z,17.27
2022-09-07T03:05:53.174Z,17.20
2022-09-07T03:08:30.270Z,17.35
2022-09-07T03:10:59.262Z,17.22
2022-09-07T03:13:30.375Z,17.21
2022-09-07T03:15:58.574Z,17.41
2022-09-07T03:18:27.736Z,17.17
2022-09-07T03:20:55.877Z,17.22
2022-09-07T03:23:23.576Z,17.02
2022-09-07T03:25:51.705Z,17.00
2022-09-07T03:28:20.509Z,17.00
2022-09-07T03:30:48.518Z,16.96
2022-09-07T03:33:17.621Z,17.05
2022-09-07T03:35:58.545Z,16.77
2022-09-07T03:38:26.206Z,16.77
2022-09-07T03:41:05.510Z,16.84
2022-09-07T03:43:34.143Z,16.89
2022-09-07T03:46:04.795Z,16.72
2022-09-07T03:48:34.499Z,16.55
2022-09-07T03:51:09.488Z,16.56
2022-09-07T03:53:40.752Z,16.23
2022-09-07T03:56:16.226Z,16.27
2022-09-07T03:58:45.228Z,16.35
2022-09-07T04:01:17.406Z,16.33
2022-09-07T04:03:46.190Z,16.46
2022-09-07T04:06:14.632Z,16.37
2022-09-07T04:08:43.534Z,16.55
2022-09-07T04:11:15.931Z,16.61
2022-09-07T04:13:44.918Z,16.67
2022-09-07T04:16:15.362Z,16.67
2022-09-07T04:18:43.269Z,16.66
2022-09-07T04:21:11.629Z,16.75
2022-09-07T04:23:43.711Z,16.83
2022-09-07T04:26:21.931Z,16.81
2022-09-07T04:28:50.258Z,17.03
2022-09-07T04:31:19.769Z,16.89
2022-09-07T04:33:49.293Z,16.85
2022-09-07T04:36:19.086Z,16.91
2022-09-07T04:38:47.278Z,16.85
2022-09-07T04:41:18.157Z,16.70
2022-09-07T04:43:47.621Z,16.85
2022-09-07T04:46:22.297Z,16.78
2022-09-07T04:48:56.010Z,17.09
2022-09-07T04:51:26.031Z,17.25
2022-09-07T04:53:56.739Z,17.25
2022-09-07T04:56:25.391Z,17.41
2022-09-07T04:58:53.297Z,17.34
2022-09-07T05:01:24.253Z,17.47
2022-09-07T05:03:52.422Z,17.66
2022-09-07T05:06:22.351Z,17.76
2022-09-07T05:08:53.912Z,17.75
2022-09-07T05:11:29.200Z,17.88
2022-09-07T05:13:59.669Z,18.07
2022-09-07T05:16:28.971Z,18.20
2022-09-07T05:19:03.014Z,18.34
2022-09-07T05:21:34.344Z,18.39
2022-09-07T05:24:02.703Z,18.60
2022-09-07T05:26:33.184Z,18.64
2022-09-07T05:31:51.615Z,18.85
2022-09-07T05:34:34.753Z,18.96
2022-09-07T05:37:02.602Z,19.18
2022-09-07T05:39:30.696Z,19.47
2022-09-07T05:41:58.426Z,19.65
2022-09-07T05:47:14.146Z,19.56
2022-09-07T05:49:41.765Z,19.67
2022-09-07T05:52:10.015Z,20.12
2022-09-07T05:54:37.637Z,20.02
2022-09-07T05:57:07.322Z,19.94
2022-09-07T05:59:35.276Z,19.83
2022-09-07T06:02:03.056Z,19.92
2022-09-07T06:04:30.749Z,19.93
2022-09-07T06:07:20.535Z,20.11
2022-09-07T06:12:36.945Z,20.17
2022-09-07T06:15:05.980Z,20.55
2022-09-07T06:17:33.533Z,20.75
2022-09-07T06:20:01.206Z,20.87
2022-09-07T06:22:31.027Z,20.93
2022-09-07T06:24:59.277Z,21.16
2022-09-07T06:27:26.864Z,21.02
2022-09-07T06:29:54.595Z,21.18
2022-09-07T06:35:11.371Z,21.90
2022-09-07T06:37:39.771Z,21.55
2022-09-07T06:40:08.788Z,21.47
2022-09-07T06:42:37.920Z,21.83
2022-09-07T06:45:06.652Z,21.84
2022-09-07T06:47:34.262Z,21.66
2022-09-07T06:50:01.788Z,21.60
2022-09-07T06:52:29.391Z,21.59
2022-09-07T06:57:30.777Z,22.04
2022-09-07T06:59:58.595Z,22.22
2022-09-07T07:02:26.169Z,22.34
2022-09-07T07:04:53.834Z,22.45
2022-09-07T07:07:21.393Z,22.49
2022-09-07T07:09:51.016Z,22.80
2022-09-07T07:14:45.328Z,22.76
2022-09-07T07:17:13.784Z,23.39
2022-09-07T07:19:41.380Z,22.68
2022-09-07T07:22:45.571Z,22.48
2022-09-07T07:24:56.550Z,22.62
2022-09-07T07:27:24.279Z,23.00
2022-09-07T07:29:52.699Z,23.20
2022-09-07T07:32:20.296Z,22.95
2022-09-07T07:34:48.159Z,22.82
2022-09-07T07:37:16.549Z,22.58
2022-09-07T07:42:34.069Z,23.11
2022-09-07T07:47:52.322Z,23.08
2022-09-07T07:50:35.488Z,23.55
2022-09-07T07:55:50.913Z,23.88
2022-09-07T07:58:19.035Z,23.68
2022-09-07T08:00:55.857Z,24.28
2022-09-07T08:03:25.845Z,24.26
2022-09-07T08:05:54.529Z,24.56
2022-09-07T08:08:23.639Z,24.80
2022-09-07T08:10:51.545Z,25.29
2022-09-07T08:13:19.348Z,25.32
2022-09-07T08:15:47.249Z,25.45
2022-09-07T08:18:17.227Z,25.20
2022-09-07T08:20:44.776Z,25.59
2022-09-07T08:23:12.190Z,25.85
2022-09-07T08:25:48.540Z,25.77
2022-09-07T08:28:16.067Z,25.31
2022-09-07T08:30:43.790Z,25.61
2022-09-07T08:33:11.221Z,25.40
2022-09-07T08:35:38.903Z,25.33
2022-09-07T08:38:06.543Z,25.32
2022-09-07T08:40:38.001Z,25.35
2022-09-07T08:43:17.216Z,25.78
2022-09-07T08:45:51.862Z,25.31
2022-09-07T08:48:31.051Z,25.69
2022-09-07T08:51:12.056Z,25.75
2022-09-07T08:53:46.681Z,26.06
2022-09-07T08:56:39.910Z,25.78
2022-09-07T08:59:19.631Z,25.75
2022-09-07T09:02:27.081Z,25.83
2022-09-07T09:05:16.395Z,26.10
2022-09-07T09:07:30.041Z,26.30
2022-09-07T09:10:25.935Z,26.08
2022-09-07T09:13:24.847Z,26.48
2022-09-07T09:16:08.331Z,26.47
2022-09-07T09:19:36.089Z,26.54
2022-09-07T09:22:19.652Z,26.68
2022-09-07T09:25:12.624Z,26.83
2022-09-07T09:27:40.082Z,26.48
2022-09-07T09:30:17.424Z,26.64
2022-09-07T09:32:48.470Z,26.50
2022-09-07T09:35:28.400Z,26.57
2022-09-07T09:37:57.839Z,26.63
2022-09-07T09:40:32.532Z,26.69
2022-09-07T09:43:26.159Z,26.59
2022-09-07T09:46:12.980Z,26.83
2022-09-07T09:48:42.129Z,27.14
2022-09-07T09:54:18.978Z,27.45
2022-09-07T09:56:49.064Z,27.47
2022-09-07T10:05:41.305Z,28.03
2022-09-07T10:08:33.396Z,28.30
2022-09-07T10:11:14.222Z,28.25
2022-09-07T10:13:58.134Z,27.78
2022-09-07T10:16:42.501Z,28.00
2022-09-07T10:19:32.694Z,28.08
2022-09-07T10:22:24.692Z,27.90
2022-09-07T10:24:54.086Z,28.08
2022-09-07T10:27:29.073Z,28.10
2022-09-07T10:29:56.817Z,28.39
2022-09-07T10:33:01.643Z,28.10
2022-09-07T10:35:34.064Z,28.49
2022-09-07T10:38:22.904Z,28.61
2022-09-07T10:41:30.773Z,28.91
2022-09-07T10:43:59.049Z,29.36
2022-09-07T10:46:58.239Z,29.61
2022-09-07T10:49:31.708Z,29.42
2022-09-07T10:52:20.009Z,29.94
2022-09-07T10:55:45.185Z,29.83
2022-09-07T10:59:03.417Z,29.75
2022-09-07T11:01:50.838Z,29.56
2022-09-07T11:04:39.910Z,29.54
2022-09-07T11:07:41.025Z,29.45
2022-09-07T11:10:25.584Z,29.45
2022-09-07T11:12:58.969Z,29.50
2022-09-07T11:15:35.556Z,29.62
2022-09-07T11:18:23.934Z,29.85
2022-09-07T11:20:58.821Z,30.18
2022-09-07T11:23:41.614Z,29.65
2022-09-07T11:26:30.556Z,29.96
2022-09-07T11:32:02.455Z,29.94
2022-09-07T11:34:45.202Z,30.08
2022-09-07T11:37:41.888Z,30.20
2022-09-07T11:40:27.214Z,30.19
2022-09-07T11:43:16.648Z,29.94
2022-09-07T11:45:56.609Z,30.01
2022-09-07T11:48:34.253Z,30.62
2022-09-07T11:51:15.842Z,30.33
2022-09-07T11:53:53.162Z,30.49
2022-09-07T11:56:45.671Z,30.75
2022-09-07T11:59:37.494Z,31.07
2022-09-07T12:02:58.203Z,31.14
2022-09-07T12:05:44.506Z,30.99
2022-09-07T12:08:48.584Z,31.28
2022-09-07T12:12:00.476Z,31.18
2022-09-07T12:15:00.804Z,31.18
2022-09-07T12:17:46.910Z,31.16
2022-09-07T12:20:20.630Z,31.16
2022-09-07T12:23:17.734Z,31.70
2022-09-07T12:25:50.684Z,31.76
2022-09-07T12:28:38.045Z,31.96
2022-09-07T12:31:12.680Z,31.95
2022-09-07T12:33:41.419Z,31.56
2022-09-07T12:36:26.650Z,31.87
2022-09-07T12:39:19.593Z,31.51
2022-09-07T12:44:42.208Z,31.33
2022-09-07T12:47:12.554Z,31.19
2022-09-07T12:50:06.847Z,31.52
2022-09-07T12:52:45.281Z,31.92
2022-09-07T12:56:15.697Z,32.21
2022-09-07T12:58:50.672Z,31.87
2022-09-07T13:02:02.265Z,32.34
2022-09-07T13:04:47.206Z,32.27
2022-09-07T13:07:49.806Z,32.20
2022-09-07T13:10:37.368Z,32.40
2022-09-07T13:19:50.267Z,33.27
2022-09-07T13:22:32.605Z,33.40
2022-09-07T13:25:03.715Z,33.32
2022-09-07T13:28:02.283Z,33.66
2022-09-07T13:30:46.060Z,33.16
2022-09-07T13:33:28.693Z,33.48
2022-09-07T13:36:05.795Z,33.85
2022-09-07T13:38:36.815Z,33.35
2022-09-07T13:41:21.505Z,33.35
2022-09-07T13:43:58.410Z,33.37
2022-09-07T13:47:13.521Z,33.61
2022-09-07T13:50:02.247Z,33.63
2022-09-07T13:52:50.631Z,33.65
2022-09-07T13:55:33.128Z,34.14
2022-09-07T13:58:13.987Z,34.04
2022-09-07T14:01:02.606Z,34.19
2022-09-07T14:03:53.156Z,34.75
2022-09-07T14:06:23.161Z,34.92
2022-09-07T14:09:19.046Z,35.12
2022-09-07T14:11:50.947Z,35.25
2022-09-07T14:14:31.050Z,35.99
2022-09-07T14:17:01.174Z,36.43
2022-09-07T14:19:52.270Z,36.56
2022-09-07T14:22:23.824Z,36.36
2022-09-07T14:24:59.844Z,36.32
2022-09-07T14:27:40.157Z,36.08
2022-09-07T14:30:33.517Z,36.19
2022-09-07T14:33:13.494Z,36.87
2022-09-07T14:35:42.100Z,36.52
2022-09-07T14:41:21.224Z,36.61
2022-09-07T14:43:57.258Z,36.50
2022-09-07T14:46:34.236Z,36.56
2022-09-07T14:49:39.362Z,36.63
2022-09-07T14:52:18.373Z,36.76
2022-09-07T14:54:52.887Z,36.72
2022-09-07T14:57:27.758Z,36.92
2022-09-07T14:59:57.234Z,36.99
2022-09-07T15:02:57.644Z,37.24
2022-09-07T15:05:30.294Z,37.03
2022-09-07T15:07:58.725Z,36.53
2022-09-07T15:10:35.596Z,36.66
2022-09-07T15:13:06.305Z,37.01
2022-09-07T15:15:41.872Z,36.53
2022-09-07T15:18:56.127Z,36.64
2022-09-07T15:21:32.298Z,36.46
2022-09-07T15:24:01.511Z,36.62
2022-09-07T15:27:08.246Z,36.52
2022-09-07T15:29:38.790Z,36.39
2022-09-07T15:32:10.500Z,35.70
2022-09-07T15:34:38.100Z,35.05
2022-09-07T15:38:00.952Z,34.06
2022-09-07T15:39:53.753Z,32.95
2022-09-07T15:45:09.695Z,32.08
2022-09-07T15:47:50.905Z,31.73
2022-09-07T15:50:19.652Z,31.45
2022-09-07T15:52:47.047Z,31.27
2022-09-07T15:55:17.111Z,31.02
2022-09-07T15:57:51.271Z,30.74
2022-09-07T16:00:22.350Z,30.37
2022-09-07T16:03:07.053Z,30.11
2022-09-07T16:05:35.316Z,30.07
2022-09-07T16:10:55.198Z,29.66
2022-09-07T16:13:24.337Z,29.50
2022-09-07T16:15:52.282Z,29.12
2022-09-07T16:18:19.936Z,28.76
2022-09-07T16:20:52.192Z,28.62
2022-09-07T16:23:20.085Z,28.48
2022-09-07T16:25:59.648Z,28.37
2022-09-07T16:28:28.401Z,27.98
2022-09-07T16:30:56.636Z,27.88
2022-09-07T16:33:33.168Z,27.71
2022-09-07T16:36:13.078Z,27.59
2022-09-07T16:38:44.489Z,27.33
2022-09-07T16:41:22.995Z,27.29
2022-09-07T16:43:50.790Z,27.20
2022-09-07T16:46:23.323Z,27.10
2022-09-07T16:48:55.195Z,26.93
2022-09-07T16:51:24.734Z,26.81
2022-09-07T16:53:55.792Z,26.63
2022-09-07T16:56:27.199Z,26.37
2022-09-07T16:59:01.640Z,26.20
2022-09-07T17:01:33.877Z,26.13
2022-09-07T17:04:05.610Z,26.01
2022-09-07T17:06:37.390Z,25.92
2022-09-07T17:09:05.231Z,25.89
2022-09-07T17:11:37.617Z,25.89
2022-09-07T17:14:06.734Z,25.69
2022-09-07T17:16:39.910Z,25.60
2022-09-07T17:22:00.903Z,25.62
2022-09-07T17:24:29.636Z,25.53
2022-09-07T17:26:59.736Z,25.36
2022-09-07T17:29:30.510Z,25.26
2022-09-07T17:34:46.784Z,25.18
2022-09-07T17:37:14.258Z,25.14
2022-09-07T17:39:42.455Z,25.00
2022-09-07T17:42:11.165Z,24.91
2022-09-07T17:44:38.713Z,24.80
2022-09-07T17:47:07.081Z,24.64
2022-09-07T17:49:36.155Z,24.66
2022-09-07T17:52:04.041Z,24.74
2022-09-07T17:54:34.130Z,24.84
2022-09-07T17:57:01.654Z,24.84
2022-09-07T18:02:17.268Z,24.52
2022-09-07T18:04:44.858Z,24.38
2022-09-07T18:07:12.493Z,24.33
2022-09-07T18:09:40.571Z,24.26
2022-09-07T18:12:08.147Z,24.22
2022-09-07T18:14:35.618Z,24.13
2022-09-07T18:17:05.077Z,24.05
2022-09-07T18:19:32.544Z,24.02
2022-09-07T18:22:01.452Z,24.10
2022-09-07T18:24:32.362Z,24.03
2022-09-07T18:27:00.349Z,24.02
2022-09-07T18:29:32.295Z,23.92
2022-09-07T18:32:04.793Z,23.81
2022-09-07T18:34:36.035Z,23.69
2022-09-07T18:37:04.700Z,23.74
2022-09-07T18:39:33.698Z,23.65
2022-09-07T18:42:01.417Z,23.51
2022-09-07T18:47:23.169Z,23.17
2022-09-07T18:49:56.101Z,23.11
2022-09-07T18:55:13.720Z,22.96
2022-09-07T18:57:43.331Z,22.92
2022-09-07T19:00:13.108Z,22.91
2022-09-07T19:02:40.698Z,22.74
2022-09-07T19:07:57.761Z,22.60
2022-09-07T19:10:25.425Z,22.47
2022-09-07T19:13:00.614Z,22.33
2022-09-07T19:15:28.347Z,22.24
2022-09-07T19:18:00.558Z,22.18
2022-09-07T19:20:29.529Z,22.13
2022-09-07T19:22:58.647Z,22.07
2022-09-07T19:25:46.322Z,21.90
2022-09-07T19:28:15.423Z,21.93
2022-09-07T19:30:49.471Z,22.11
2022-09-07T19:33:17.212Z,21.94
2022-09-07T19:35:45.707Z,21.98
2022-09-07T19:38:16.095Z,21.77
2022-09-07T19:40:43.780Z,21.66
2022-09-07T19:43:12.230Z,21.64
2022-09-07T19:45:40.625Z,21.58
2022-09-07T19:48:08.127Z,21.61
2022-09-07T19:50:35.718Z,21.63
2022-09-07T19:53:03.236Z,21.64
2022-09-07T19:55:30.742Z,21.53
2022-09-07T19:57:58.263Z,21.85
2022-09-07T20:00:27.708Z,21.66
2022-09-07T20:02:55.167Z,21.48
2022-09-07T20:05:23.919Z,21.39
2022-09-07T20:07:53.133Z,21.37
2022-09-07T20:10:20.623Z,21.25
2022-09-07T20:12:48.058Z,20.95
2022-09-07T20:15:15.741Z,21.01
2022-09-07T20:17:43.166Z,20.93
2022-09-07T20:20:10.883Z,20.94
2022-09-07T20:22:58.311Z,20.96
2022-09-07T20:25:25.860Z,20.95
2022-09-07T20:27:53.348Z,20.75
2022-09-07T20:30:24.325Z,20.69
2022-09-07T20:32:51.783Z,20.56
2022-09-07T20:35:19.323Z,20.56
2022-09-07T20:37:46.997Z,20.66
2022-09-07T20:40:15.065Z,20.73
2022-09-07T20:42:43.134Z,20.67
2022-09-07T20:45:11.073Z,20.73
2022-09-07T20:47:38.601Z,20.62
2022-09-07T20:50:06.699Z,20.60
2022-09-07T20:52:34.649Z,20.60
2022-09-07T20:55:02.654Z,20.62
2022-09-07T20:57:30.197Z,20.66
2022-09-07T20:59:57.624Z,21.03
2022-09-07T21:02:25.136Z,21.00
2022-09-07T21:04:52.716Z,20.97
2022-09-07T21:07:20.170Z,21.22
2022-09-07T21:09:47.763Z,21.34
2022-09-07T21:12:15.848Z,21.07
2022-09-07T21:14:45.572Z,21.11
2022-09-07T21:17:13.087Z,20.94
2022-09-07T21:19:40.609Z,21.02
2022-09-07T21:22:08.041Z,20.99
2022-09-07T21:24:36.041Z,20.90
2022-09-07T21:27:03.561Z,21.01
2022-09-07T21:29:31.077Z,20.90
2022-09-07T21:31:58.708Z,21.00
2022-09-07T21:34:26.500Z,21.02
2022-09-07T21:36:53.963Z,20.96
2022-09-07T21:39:21.573Z,20.94
2022-09-07T21:41:49.208Z,20.92
2022-09-07T21:44:17.525Z,20.97
2022-09-07T21:46:45.898Z,20.83
2022-09-07T21:49:13.687Z,20.89
2022-09-07T21:51:41.203Z,21.02
2022-09-07T21:54:09.221Z,20.85
2022-09-07T21:56:37.632Z,20.81
2022-09-07T21:59:05.179Z,20.73
2022-09-07T22:01:33.075Z,20.66
2022-09-07T22:04:04.208Z,20.68
2022-09-07T22:06:32.766Z,20.58
2022-09-07T22:09:02.701Z,20.65
2022-09-07T22:11:31.098Z,20.56
2022-09-07T22:14:02.793Z,20.55
2022-09-07T22:16:32.065Z,20.51
2022-09-07T22:18:59.773Z,20.52
2022-09-07T22:21:29.351Z,20.47
2022-09-07T22:24:02.520Z,20.36
2022-09-07T22:26:35.113Z,20.35
2022-09-07T22:29:02.720Z,20.28
2022-09-07T22:31:33.768Z,20.25
2022-09-07T22:34:04.435Z,20.19
2022-09-07T22:36:43.827Z,20.12
2022-09-07T22:39:19.698Z,20.11
2022-09-07T22:41:48.727Z,19.98
2022-09-07T22:44:18.592Z,20.09
2022-09-07T22:46:48.038Z,20.08
2022-09-07T22:49:17.460Z,20.07
2022-09-07T22:51:45.743Z,19.91
2022-09-07T22:54:14.224Z,19.86
2022-09-07T22:56:42.424Z,19.77
2022-09-07T22:59:10.602Z,19.70
2022-09-07T23:01:38.557Z,19.64
2022-09-07T23:04:07.022Z,19.64
2022-09-07T23:06:38.616Z,19.59
2022-09-07T23:09:10.923Z,19.53
2022-09-07T23:11:38.883Z,19.45
2022-09-07T23:14:16.372Z,19.53
2022-09-07T23:16:45.216Z,19.46
2022-09-07T23:19:14.606Z,19.47
2022-09-07T23:21:43.808Z,19.42
2022-09-07T23:24:17.110Z,19.41
2022-09-07T23:26:46.830Z,19.38
2022-09-07T23:29:15.823Z,19.30
2022-09-07T23:31:43.933Z,19.28
2022-09-07T23:34:11.887Z,19.13
2022-09-07T23:36:39.551Z,19.06
2022-09-07T23:39:07.082Z,19.10
2022-09-07T23:41:34.518Z,19.21
2022-09-07T23:44:02.054Z,19.19
2022-09-07T23:46:29.762Z,19.20
2022-09-07T23:48:57.280Z,19.17
2022-09-07T23:51:25.008Z,19.24
2022-09-07T23:53:53.571Z,19.03
2022-09-07T23:56:24.558Z,19.15
2022-09-07T23:58:52.689Z,18.99
